sensor_id;sensor_type;location;lat;lon;timestamp;pressure;altitude;pressure_sealevel;temperature;humidity
19553;BME280;9420;50.876;7.012;2022-07-23T00:00:24;101226.63;;;34.96;42.76
19553;BME280;9420;50.876;7.012;2022-07-23T00:02:51;101224.16;;;35.72;41.82
19553;BME280;9420;50.876;7.012;2022-07-23T00:05:18;101239.75;;;35.00;42.68
19553;BME280;9420;50.876;7.012;2022-07-23T00:07:46;101243.06;;;35.46;42.00
19553;BME280;9420;50.876;7.012;2022-07-23T00:10:13;101247.22;;;35.06;42.85
19553;BME280;9420;50.876;7.012;2022-07-23T00:12:41;101237.44;;;36.73;40.61
19553;BME280;9420;50.876;7.012;2022-07-23T00:15:10;101249.69;;;35.37;42.21
19553;BME280;9420;50.876;7.012;2022-07-23T00:17:37;101250.63;;;35.44;42.78
19553;BME280;9420;50.876;7.012;2022-07-23T00:20:05;101240.66;;;35.22;43.13
19553;BME280;9420;50.876;7.012;2022-07-23T00:22:33;101238.91;;;35.14;43.27
19553;BME280;9420;50.876;7.012;2022-07-23T00:25:00;101252.59;;;35.00;43.53
19553;BME280;9420;50.876;7.012;2022-07-23T00:27:27;101246.28;;;34.99;43.92
19553;BME280;9420;50.876;7.012;2022-07-23T00:29:55;101245.41;;;34.70;45.44
19553;BME280;9420;50.876;7.012;2022-07-23T00:32:22;101234.81;;;36.58;41.54
19553;BME280;9420;50.876;7.012;2022-07-23T00:34:50;101238.94;;;35.36;41.78
19553;BME280;9420;50.876;7.012;2022-07-23T00:37:17;101237.03;;;34.19;44.68
19553;BME280;9420;50.876;7.012;2022-07-23T00:39:44;101237.09;;;35.07;43.27
19553;BME280;9420;50.876;7.012;2022-07-23T00:42:11;101247.41;;;34.09;45.03
19553;BME280;9420;50.876;7.012;2022-07-23T00:44:38;101245.97;;;34.51;44.85
19553;BME280;9420;50.876;7.012;2022-07-23T00:47:06;101263.16;;;33.23;46.22
19553;BME280;9420;50.876;7.012;2022-07-23T00:49:33;101244.66;;;34.76;43.61
19553;BME280;9420;50.876;7.012;2022-07-23T00:52:02;101241.44;;;34.87;43.40
19553;BME280;9420;50.876;7.012;2022-07-23T00:54:32;101239.94;;;34.99;43.79
19553;BME280;9420;50.876;7.012;2022-07-23T00:56:59;101248.59;;;34.88;43.42
19553;BME280;9420;50.876;7.012;2022-07-23T00:59:26;101243.53;;;34.85;44.21
19553;BME280;9420;50.876;7.012;2022-07-23T01:01:53;101258.97;;;32.97;49.32
19553;BME280;9420;50.876;7.012;2022-07-23T01:04:22;101245.69;;;33.86;48.79
19553;BME280;9420;50.876;7.012;2022-07-23T01:06:49;101249.94;;;33.66;50.32
19553;BME280;9420;50.876;7.012;2022-07-23T01:09:17;101244.78;;;35.47;46.02
19553;BME280;9420;50.876;7.012;2022-07-23T01:11:44;101238.31;;;36.18;44.30
19553;BME280;9420;50.876;7.012;2022-07-23T01:14:14;101240.16;;;34.16;46.88
19553;BME280;9420;50.876;7.012;2022-07-23T01:16:44;101236.69;;;34.37;47.31
19553;BME280;9420;50.876;7.012;2022-07-23T01:19:12;101225.13;;;34.12;47.71
19553;BME280;9420;50.876;7.012;2022-07-23T01:21:44;101230.81;;;33.88;48.21
19553;BME280;9420;50.876;7.012;2022-07-23T01:24:13;101226.31;;;34.32;47.52
19553;BME280;9420;50.876;7.012;2022-07-23T01:26:44;101222.72;;;34.17;47.25
19553;BME280;9420;50.876;7.012;2022-07-23T01:29:12;101208.88;;;34.33;46.67
19553;BME280;9420;50.876;7.012;2022-07-23T01:31:40;101206.78;;;34.21;45.92
19553;BME280;9420;50.876;7.012;2022-07-23T01:34:07;101219.53;;;34.43;45.76
19553;BME280;9420;50.876;7.012;2022-07-23T01:36:35;101225.75;;;34.22;46.17
19553;BME280;9420;50.876;7.012;2022-07-23T01:39:03;101235.22;;;33.44;48.29
19553;BME280;9420;50.876;7.012;2022-07-23T01:41:32;101231.41;;;33.98;47.99
19553;BME280;9420;50.876;7.012;2022-07-23T01:44:00;101225.41;;;34.03;47.49
19553;BME280;9420;50.876;7.012;2022-07-23T01:46:27;101217.50;;;33.85;47.95
19553;BME280;9420;50.876;7.012;2022-07-23T01:48:54;101212.19;;;34.44;47.14
19553;BME280;9420;50.876;7.012;2022-07-23T01:51:22;101209.34;;;34.22;48.70
19553;BME280;9420;50.876;7.012;2022-07-23T01:53:49;101207.28;;;34.24;48.78
19553;BME280;9420;50.876;7.012;2022-07-23T01:56:16;101220.38;;;33.69;51.42
19553;BME280;9420;50.876;7.012;2022-07-23T01:58:47;101225.72;;;32.93;52.77
19553;BME280;9420;50.876;7.012;2022-07-23T02:01:16;101235.03;;;33.76;53.25
19553;BME280;9420;50.876;7.012;2022-07-23T02:03:43;101219.94;;;34.55;52.02
19553;BME280;9420;50.876;7.012;2022-07-23T02:06:10;101227.88;;;33.90;54.19
19553;BME280;9420;50.876;7.012;2022-07-23T02:08:37;101225.63;;;35.68;50.88
19553;BME280;9420;50.876;7.012;2022-07-23T02:11:04;101232.09;;;34.00;55.58
19553;BME280;9420;50.876;7.012;2022-07-23T02:13:31;101225.06;;;33.60;58.59
19553;BME280;9420;50.876;7.012;2022-07-23T02:16:00;101207.38;;;34.31;55.69
19553;BME280;9420;50.876;7.012;2022-07-23T02:18:27;101211.56;;;34.56;53.60
19553;BME280;9420;50.876;7.012;2022-07-23T02:20:54;101197.34;;;33.86;57.76
19553;BME280;9420;50.876;7.012;2022-07-23T02:23:21;101196.31;;;34.10;58.99
19553;BME280;9420;50.876;7.012;2022-07-23T02:25:50;101200.41;;;33.91;58.38
19553;BME280;9420;50.876;7.012;2022-07-23T02:28:18;101207.81;;;33.83;60.22
19553;BME280;9420;50.876;7.012;2022-07-23T02:30:45;101211.16;;;33.17;63.20
19553;BME280;9420;50.876;7.012;2022-07-23T02:33:13;101211.56;;;32.98;63.35
19553;BME280;9420;50.876;7.012;2022-07-23T02:35:40;101217.41;;;32.95;65.85
19553;BME280;9420;50.876;7.012;2022-07-23T02:38:15;101202.19;;;33.31;64.10
19553;BME280;9420;50.876;7.012;2022-07-23T02:40:42;101216.50;;;32.55;67.05
19553;BME280;9420;50.876;7.012;2022-07-23T02:43:09;101211.97;;;32.24;67.33
19553;BME280;9420;50.876;7.012;2022-07-23T02:45:36;101214.31;;;32.51;67.80
19553;BME280;9420;50.876;7.012;2022-07-23T02:48:04;101218.91;;;33.05;65.81
19553;BME280;9420;50.876;7.012;2022-07-23T02:50:32;101214.09;;;32.60;67.34
19553;BME280;9420;50.876;7.012;2022-07-23T02:52:59;101210.09;;;33.26;66.31
19553;BME280;9420;50.876;7.012;2022-07-23T02:55:26;101205.66;;;32.07;69.88
19553;BME280;9420;50.876;7.012;2022-07-23T02:57:53;101216.34;;;33.04;67.36
19553;BME280;9420;50.876;7.012;2022-07-23T03:00:21;101206.44;;;33.33;66.18
19553;BME280;9420;50.876;7.012;2022-07-23T03:02:48;101215.59;;;32.71;68.17
19553;BME280;9420;50.876;7.012;2022-07-23T03:05:15;101209.94;;;32.80;69.02
19553;BME280;9420;50.876;7.012;2022-07-23T03:07:43;101218.94;;;32.34;70.22
19553;BME280;9420;50.876;7.012;2022-07-23T03:10:10;101219.78;;;32.89;69.05
19553;BME280;9420;50.876;7.012;2022-07-23T03:12:37;101214.00;;;32.93;66.70
19553;BME280;9420;50.876;7.012;2022-07-23T03:15:06;101206.69;;;34.14;61.84
19553;BME280;9420;50.876;7.012;2022-07-23T03:17:33;101217.03;;;32.98;68.02
19553;BME280;9420;50.876;7.012;2022-07-23T03:20:00;101225.78;;;33.24;66.75
19553;BME280;9420;50.876;7.012;2022-07-23T03:22:27;101227.75;;;33.07;67.76
19553;BME280;9420;50.876;7.012;2022-07-23T03:24:56;101223.53;;;32.97;67.32
19553;BME280;9420;50.876;7.012;2022-07-23T03:27:25;101215.38;;;32.80;68.43
19553;BME280;9420;50.876;7.012;2022-07-23T03:29:54;101207.81;;;33.60;64.91
19553;BME280;9420;50.876;7.012;2022-07-23T03:32:24;101211.31;;;33.46;65.54
19553;BME280;9420;50.876;7.012;2022-07-23T03:34:52;101212.56;;;33.66;65.24
19553;BME280;9420;50.876;7.012;2022-07-23T03:37:20;101223.81;;;33.10;65.92
19553;BME280;9420;50.876;7.012;2022-07-23T03:39:47;101208.81;;;33.14;65.33
19553;BME280;9420;50.876;7.012;2022-07-23T03:42:15;101216.06;;;32.91;65.60
19553;BME280;9420;50.876;7.012;2022-07-23T03:44:42;101215.38;;;32.80;65.63
19553;BME280;9420;50.876;7.012;2022-07-23T03:47:10;101227.53;;;33.17;64.90
19553;BME280;9420;50.876;7.012;2022-07-23T03:49:37;101221.38;;;33.45;63.30
19553;BME280;9420;50.876;7.012;2022-07-23T03:52:04;101224.72;;;33.02;63.66
19553;BME280;9420;50.876;7.012;2022-07-23T03:54:31;101224.38;;;32.89;64.76
19553;BME280;9420;50.876;7.012;2022-07-23T03:56:59;101224.22;;;32.99;63.16
19553;BME280;9420;50.876;7.012;2022-07-23T03:59:27;101227.31;;;32.87;64.92
19553;BME280;9420;50.876;7.012;2022-07-23T04:01:54;101220.97;;;32.32;66.19
19553;BME280;9420;50.876;7.012;2022-07-23T04:04:21;101219.28;;;32.23;66.94
19553;BME280;9420;50.876;7.012;2022-07-23T04:06:48;101231.53;;;32.35;65.82
19553;BME280;9420;50.876;7.012;2022-07-23T04:09:15;101229.69;;;31.71;71.05
19553;BME280;9420;50.876;7.012;2022-07-23T04:11:42;101230.56;;;31.14;72.60
19553;BME280;9420;50.876;7.012;2022-07-23T04:14:09;101231.91;;;32.16;69.22
19553;BME280;9420;50.876;7.012;2022-07-23T04:16:38;101230.66;;;32.35;67.08
19553;BME280;9420;50.876;7.012;2022-07-23T04:19:05;101237.19;;;32.09;69.73
19553;BME280;9420;50.876;7.012;2022-07-23T04:21:32;101241.66;;;33.20;61.46
19553;BME280;9420;50.876;7.012;2022-07-23T04:23:59;101239.25;;;32.86;64.66
19553;BME280;9420;50.876;7.012;2022-07-23T04:26:26;101240.59;;;32.82;64.37
19553;BME280;9420;50.876;7.012;2022-07-23T04:28:53;101238.88;;;34.04;61.67
19553;BME280;9420;50.876;7.012;2022-07-23T04:31:20;101242.59;;;34.11;62.20
19553;BME280;9420;50.876;7.012;2022-07-23T04:33:49;101249.91;;;32.41;65.34
19553;BME280;9420;50.876;7.012;2022-07-23T04:36:16;101256.97;;;32.91;64.12
19553;BME280;9420;50.876;7.012;2022-07-23T04:38:43;101269.19;;;32.16;66.18
19553;BME280;9420;50.876;7.012;2022-07-23T04:41:11;101265.94;;;32.20;67.73
19553;BME280;9420;50.876;7.012;2022-07-23T04:43:38;101280.94;;;32.16;68.01
19553;BME280;9420;50.876;7.012;2022-07-23T04:46:05;101281.25;;;31.81;69.71
19553;BME280;9420;50.876;7.012;2022-07-23T04:48:32;101281.25;;;31.73;68.72
19553;BME280;9420;50.876;7.012;2022-07-23T04:51:01;101281.63;;;32.42;67.31
19553;BME280;9420;50.876;7.012;2022-07-23T04:53:28;101290.66;;;32.19;68.12
19553;BME280;9420;50.876;7.012;2022-07-23T04:55:55;101300.91;;;31.43;71.07
19553;BME280;9420;50.876;7.012;2022-07-23T04:58:22;101291.28;;;31.72;69.10
19553;BME280;9420;50.876;7.012;2022-07-23T05:00:49;101295.00;;;31.21;72.49
19553;BME280;9420;50.876;7.012;2022-07-23T05:03:18;101307.41;;;31.58;71.08
19553;BME280;9420;50.876;7.012;2022-07-23T05:05:45;101304.53;;;31.17;74.04
19553;BME280;9420;50.876;7.012;2022-07-23T05:08:13;101304.09;;;31.38;73.35
19553;BME280;9420;50.876;7.012;2022-07-23T05:10:41;101296.78;;;32.13;69.83
19553;BME280;9420;50.876;7.012;2022-07-23T05:13:09;101308.06;;;30.84;77.60
19553;BME280;9420;50.876;7.012;2022-07-23T05:15:36;101307.38;;;31.42;75.37
19553;BME280;9420;50.876;7.012;2022-07-23T05:18:03;101310.88;;;31.34;76.61
19553;BME280;9420;50.876;7.012;2022-07-23T05:20:31;101303.53;;;31.68;73.21
19553;BME280;9420;50.876;7.012;2022-07-23T05:22:58;101301.75;;;32.09;72.80
19553;BME280;9420;50.876;7.012;2022-07-23T05:25:26;101313.34;;;31.11;75.56
19553;BME280;9420;50.876;7.012;2022-07-23T05:27:53;101313.72;;;30.65;79.63
19553;BME280;9420;50.876;7.012;2022-07-23T05:30:21;101316.13;;;31.27;78.11
19553;BME280;9420;50.876;7.012;2022-07-23T05:32:48;101308.38;;;32.15;73.65
19553;BME280;9420;50.876;7.012;2022-07-23T05:35:15;101304.28;;;32.59;72.74
19553;BME280;9420;50.876;7.012;2022-07-23T05:37:42;101313.75;;;31.90;73.04
19553;BME280;9420;50.876;7.012;2022-07-23T05:40:11;101313.84;;;31.49;75.33
19553;BME280;9420;50.876;7.012;2022-07-23T05:42:41;101310.88;;;32.72;69.77
19553;BME280;9420;50.876;7.012;2022-07-23T05:45:09;101316.69;;;32.05;71.81
19553;BME280;9420;50.876;7.012;2022-07-23T05:47:45;101321.22;;;31.22;75.95
19553;BME280;9420;50.876;7.012;2022-07-23T05:50:13;101324.22;;;32.27;73.25
19553;BME280;9420;50.876;7.012;2022-07-23T05:52:41;101321.16;;;32.46;71.58
19553;BME280;9420;50.876;7.012;2022-07-23T05:55:10;101320.81;;;32.49;72.14
19553;BME280;9420;50.876;7.012;2022-07-23T05:57:40;101320.59;;;31.94;71.10
19553;BME280;9420;50.876;7.012;2022-07-23T06:00:09;101319.97;;;32.00;73.09
19553;BME280;9420;50.876;7.012;2022-07-23T06:02:38;101322.84;;;32.23;73.21
19553;BME280;9420;50.876;7.012;2022-07-23T06:05:07;101317.19;;;32.73;69.75
19553;BME280;9420;50.876;7.012;2022-07-23T06:07:35;101323.59;;;33.51;66.75
19553;BME280;9420;50.876;7.012;2022-07-23T06:10:03;101321.34;;;32.53;69.97
19553;BME280;9420;50.876;7.012;2022-07-23T06:12:31;101320.59;;;33.30;66.27
19553;BME280;9420;50.876;7.012;2022-07-23T06:14:59;101323.84;;;32.70;68.28
19553;BME280;9420;50.876;7.012;2022-07-23T06:17:27;101335.13;;;32.19;69.69
19553;BME280;9420;50.876;7.012;2022-07-23T06:19:55;101331.72;;;32.49;70.45
19553;BME280;9420;50.876;7.012;2022-07-23T06:22:22;101327.78;;;32.11;71.57
19553;BME280;9420;50.876;7.012;2022-07-23T06:24:50;101329.66;;;32.11;71.17
19553;BME280;9420;50.876;7.012;2022-07-23T06:27:18;101334.72;;;31.90;72.96
19553;BME280;9420;50.876;7.012;2022-07-23T06:29:45;101340.06;;;32.56;69.64
19553;BME280;9420;50.876;7.012;2022-07-23T06:32:13;101337.53;;;31.56;73.69
19553;BME280;9420;50.876;7.012;2022-07-23T06:34:41;101342.44;;;31.53;72.82
19553;BME280;9420;50.876;7.012;2022-07-23T06:37:08;101336.44;;;32.07;72.75
19553;BME280;9420;50.876;7.012;2022-07-23T06:39:35;101336.59;;;33.41;66.75
19553;BME280;9420;50.876;7.012;2022-07-23T06:42:02;101334.56;;;33.35;66.38
19553;BME280;9420;50.876;7.012;2022-07-23T06:44:29;101345.56;;;33.88;64.26
19553;BME280;9420;50.876;7.012;2022-07-23T06:46:57;101342.63;;;32.49;68.37
19553;BME280;9420;50.876;7.012;2022-07-23T06:49:25;101330.00;;;32.40;69.24
19553;BME280;9420;50.876;7.012;2022-07-23T06:51:52;101338.19;;;32.56;67.85
19553;BME280;9420;50.876;7.012;2022-07-23T06:54:19;101344.22;;;33.15;66.60
19553;BME280;9420;50.876;7.012;2022-07-23T06:56:47;101336.34;;;33.58;63.67
19553;BME280;9420;50.876;7.012;2022-07-23T06:59:14;101349.75;;;33.37;64.86
19553;BME280;9420;50.876;7.012;2022-07-23T07:01:41;101345.75;;;33.48;64.23
19553;BME280;9420;50.876;7.012;2022-07-23T07:04:08;101344.28;;;34.44;60.02
19553;BME280;9420;50.876;7.012;2022-07-23T07:06:37;101355.97;;;33.62;60.49
19553;BME280;9420;50.876;7.012;2022-07-23T07:09:04;101346.94;;;35.62;52.59
19553;BME280;9420;50.876;7.012;2022-07-23T07:11:31;101352.44;;;34.89;55.40
19553;BME280;9420;50.876;7.012;2022-07-23T07:13:58;101338.47;;;37.66;47.51
19553;BME280;9420;50.876;7.012;2022-07-23T07:16:25;101347.41;;;36.02;50.33
19553;BME280;9420;50.876;7.012;2022-07-23T07:18:52;101352.38;;;35.12;54.19
19553;BME280;9420;50.876;7.012;2022-07-23T07:21:19;101352.47;;;35.83;52.13
19553;BME280;9420;50.876;7.012;2022-07-23T07:23:47;101362.09;;;35.00;53.59
19553;BME280;9420;50.876;7.012;2022-07-23T07:26:14;101351.75;;;35.46;51.75
19553;BME280;9420;50.876;7.012;2022-07-23T07:28:42;101354.97;;;36.00;50.81
19553;BME280;9420;50.876;7.012;2022-07-23T07:31:09;101359.94;;;35.75;51.24
19553;BME280;9420;50.876;7.012;2022-07-23T07:33:36;101362.00;;;35.87;50.88
19553;BME280;9420;50.876;7.012;2022-07-23T07:36:04;101371.19;;;34.92;52.87
19553;BME280;9420;50.876;7.012;2022-07-23T07:38:31;101364.56;;;35.74;51.93
19553;BME280;9420;50.876;7.012;2022-07-23T07:41:00;101364.72;;;35.08;50.74
19553;BME280;9420;50.876;7.012;2022-07-23T07:43:27;101366.09;;;36.13;47.04
19553;BME280;9420;50.876;7.012;2022-07-23T07:45:54;101367.31;;;35.74;48.43
19553;BME280;9420;50.876;7.012;2022-07-23T07:48:21;101370.72;;;35.76;49.83
19553;BME280;9420;50.876;7.012;2022-07-23T07:50:48;101367.38;;;36.59;47.23
19553;BME280;9420;50.876;7.012;2022-07-23T07:53:15;101373.19;;;35.42;48.54
19553;BME280;9420;50.876;7.012;2022-07-23T07:55:43;101366.31;;;37.15;45.42
19553;BME280;9420;50.876;7.012;2022-07-23T07:58:11;101372.06;;;36.02;46.30
19553;BME280;9420;50.876;7.012;2022-07-23T08:00:38;101381.75;;;35.83;46.54
19553;BME280;9420;50.876;7.012;2022-07-23T08:03:05;101374.50;;;35.75;45.63
19553;BME280;9420;50.876;7.012;2022-07-23T08:05:32;101383.38;;;35.77;45.70
19553;BME280;9420;50.876;7.012;2022-07-23T08:07:59;101382.50;;;36.48;44.30
19553;BME280;9420;50.876;7.012;2022-07-23T08:10:28;101389.31;;;35.81;45.21
19553;BME280;9420;50.876;7.012;2022-07-23T08:12:59;101385.78;;;36.02;45.11
19553;BME280;9420;50.876;7.012;2022-07-23T08:15:29;101379.06;;;36.89;45.30
19553;BME280;9420;50.876;7.012;2022-07-23T08:17:58;101378.34;;;37.14;43.86
19553;BME280;9420;50.876;7.012;2022-07-23T08:20:26;101381.69;;;37.10;42.54
19553;BME280;9420;50.876;7.012;2022-07-23T08:22:56;101393.06;;;37.00;43.65
19553;BME280;9420;50.876;7.012;2022-07-23T08:25:25;101386.13;;;37.38;43.91
19553;BME280;9420;50.876;7.012;2022-07-23T08:27:53;101384.75;;;38.16;41.81
19553;BME280;9420;50.876;7.012;2022-07-23T08:30:21;101393.59;;;38.11;39.87
19553;BME280;9420;50.876;7.012;2022-07-23T08:32:54;101390.34;;;38.75;39.74
19553;BME280;9420;50.876;7.012;2022-07-23T08:35:27;101405.03;;;38.02;40.45
19553;BME280;9420;50.876;7.012;2022-07-23T08:37:55;101408.25;;;36.12;44.67
19553;BME280;9420;50.876;7.012;2022-07-23T08:40:23;101400.03;;;35.61;46.31
19553;BME280;9420;50.876;7.012;2022-07-23T08:42:52;101412.88;;;36.75;43.08
19553;BME280;9420;50.876;7.012;2022-07-23T08:45:22;101421.81;;;36.41;41.74
19553;BME280;9420;50.876;7.012;2022-07-23T08:47:53;101420.03;;;36.69;42.32
19553;BME280;9420;50.876;7.012;2022-07-23T08:50:22;101420.66;;;36.29;43.60
19553;BME280;9420;50.876;7.012;2022-07-23T08:52:52;101412.31;;;37.34;40.78
19553;BME280;9420;50.876;7.012;2022-07-23T08:55:22;101410.00;;;38.91;39.62
19553;BME280;9420;50.876;7.012;2022-07-23T08:57:52;101398.06;;;39.94;38.75
19553;BME280;9420;50.876;7.012;2022-07-23T09:00:21;101404.50;;;38.91;39.50
19553;BME280;9420;50.876;7.012;2022-07-23T09:02:50;101413.59;;;39.18;37.68
19553;BME280;9420;50.876;7.012;2022-07-23T09:05:18;101400.91;;;38.98;38.71
19553;BME280;9420;50.876;7.012;2022-07-23T09:08:05;101409.75;;;39.26;38.09
19553;BME280;9420;50.876;7.012;2022-07-23T09:10:48;101406.81;;;39.78;38.39
19553;BME280;9420;50.876;7.012;2022-07-23T09:13:30;101416.97;;;38.35;38.10
19553;BME280;9420;50.876;7.012;2022-07-23T09:16:00;101402.63;;;37.38;39.14
19553;BME280;9420;50.876;7.012;2022-07-23T09:18:45;101413.09;;;38.23;38.62
19553;BME280;9420;50.876;7.012;2022-07-23T09:21:20;101413.03;;;40.49;35.33
19553;BME280;9420;50.876;7.012;2022-07-23T09:23:52;101416.56;;;39.04;36.65
19553;BME280;9420;50.876;7.012;2022-07-23T09:26:27;101418.25;;;38.39;36.05
19553;BME280;9420;50.876;7.012;2022-07-23T09:29:00;101418.13;;;37.53;37.79
19553;BME280;9420;50.876;7.012;2022-07-23T09:31:34;101414.00;;;38.63;37.56
19553;BME280;9420;50.876;7.012;2022-07-23T09:34:13;101420.69;;;38.08;38.49
19553;BME280;9420;50.876;7.012;2022-07-23T09:36:42;101413.41;;;39.77;35.78
19553;BME280;9420;50.876;7.012;2022-07-23T09:39:10;101417.75;;;41.16;33.68
19553;BME280;9420;50.876;7.012;2022-07-23T09:41:41;101412.06;;;39.93;34.86
19553;BME280;9420;50.876;7.012;2022-07-23T09:44:15;101413.13;;;39.98;34.55
19553;BME280;9420;50.876;7.012;2022-07-23T09:46:44;101410.97;;;39.56;35.69
19553;BME280;9420;50.876;7.012;2022-07-23T09:49:23;101416.72;;;40.36;34.71
19553;BME280;9420;50.876;7.012;2022-07-23T09:51:56;101418.69;;;39.15;35.98
19553;BME280;9420;50.876;7.012;2022-07-23T09:54:33;101408.72;;;39.84;35.68
19553;BME280;9420;50.876;7.012;2022-07-23T09:57:05;101415.72;;;38.97;36.12
19553;BME280;9420;50.876;7.012;2022-07-23T09:59:36;101422.47;;;38.61;37.58
19553;BME280;9420;50.876;7.012;2022-07-23T10:02:07;101414.63;;;38.32;37.41
19553;BME280;9420;50.876;7.012;2022-07-23T10:04:36;101415.00;;;37.69;37.98
19553;BME280;9420;50.876;7.012;2022-07-23T10:07:05;101420.38;;;36.87;38.04
19553;BME280;9420;50.876;7.012;2022-07-23T10:09:36;101411.56;;;39.71;35.44
19553;BME280;9420;50.876;7.012;2022-07-23T10:12:09;101411.56;;;39.71;35.32
19553;BME280;9420;50.876;7.012;2022-07-23T10:14:47;101401.69;;;40.32;32.94
19553;BME280;9420;50.876;7.012;2022-07-23T10:17:16;101394.50;;;41.05;33.78
19553;BME280;9420;50.876;7.012;2022-07-23T10:19:45;101397.19;;;41.12;33.56
19553;BME280;9420;50.876;7.012;2022-07-23T10:22:15;101394.44;;;41.30;33.04
19553;BME280;9420;50.876;7.012;2022-07-23T10:24:58;101391.91;;;41.65;31.73
19553;BME280;9420;50.876;7.012;2022-07-23T10:28:15;101394.47;;;39.87;33.38
19553;BME280;9420;50.876;7.012;2022-07-23T10:31:01;101388.72;;;41.98;31.32
19553;BME280;9420;50.876;7.012;2022-07-23T10:33:44;101389.31;;;41.52;33.35
19553;BME280;9420;50.876;7.012;2022-07-23T10:36:23;101388.88;;;42.44;31.25
19553;BME280;9420;50.876;7.012;2022-07-23T10:39:04;101391.00;;;40.42;32.44
19553;BME280;9420;50.876;7.012;2022-07-23T10:41:33;101386.16;;;41.30;32.38
19553;BME280;9420;50.876;7.012;2022-07-23T10:44:10;101388.66;;;42.57;29.41
19553;BME280;9420;50.876;7.012;2022-07-23T10:46:57;101393.03;;;39.78;31.21
19553;BME280;9420;50.876;7.012;2022-07-23T10:49:36;101378.16;;;40.55;30.86
19553;BME280;9420;50.876;7.012;2022-07-23T10:52:24;101385.66;;;41.87;31.03
19553;BME280;9420;50.876;7.012;2022-07-23T10:55:40;101376.63;;;42.63;30.03
19553;BME280;9420;50.876;7.012;2022-07-23T10:58:07;101380.78;;;42.31;30.03
19553;BME280;9420;50.876;7.012;2022-07-23T11:00:36;101373.31;;;41.36;29.76
19553;BME280;9420;50.876;7.012;2022-07-23T11:05:48;101381.19;;;41.86;29.10
19553;BME280;9420;50.876;7.012;2022-07-23T11:08:18;101371.22;;;43.77;28.37
19553;BME280;9420;50.876;7.012;2022-07-23T11:10:53;101369.03;;;43.39;29.25
19553;BME280;9420;50.876;7.012;2022-07-23T11:13:48;101370.97;;;41.39;29.55
19553;BME280;9420;50.876;7.012;2022-07-23T11:16:24;101379.69;;;41.54;29.71
19553;BME280;9420;50.876;7.012;2022-07-23T11:19:09;101368.31;;;43.32;27.95
19553;BME280;9420;50.876;7.012;2022-07-23T11:22:00;101368.28;;;45.12;27.42
19553;BME280;9420;50.876;7.012;2022-07-23T11:24:29;101372.34;;;44.21;25.78
19553;BME280;9420;50.876;7.012;2022-07-23T11:27:02;101366.44;;;45.39;24.44
19553;BME280;9420;50.876;7.012;2022-07-23T11:29:47;101364.78;;;45.00;25.05
19553;BME280;9420;50.876;7.012;2022-07-23T11:32:38;101362.16;;;45.75;24.46
19553;BME280;9420;50.876;7.012;2022-07-23T11:35:26;101357.69;;;44.92;25.66
19553;BME280;9420;50.876;7.012;2022-07-23T11:38:03;101355.47;;;45.97;25.77
19553;BME280;9420;50.876;7.012;2022-07-23T11:40:32;101363.81;;;46.92;23.62
19553;BME280;9420;50.876;7.012;2022-07-23T11:43:02;101365.91;;;45.85;22.82
19553;BME280;9420;50.876;7.012;2022-07-23T11:45:34;101361.78;;;45.66;24.05
19553;BME280;9420;50.876;7.012;2022-07-23T11:48:02;101356.97;;;45.83;24.54
19553;BME280;9420;50.876;7.012;2022-07-23T11:50:30;101353.72;;;47.33;24.01
19553;BME280;9420;50.876;7.012;2022-07-23T11:52:58;101349.81;;;47.34;23.02
19553;BME280;9420;50.876;7.012;2022-07-23T11:55:25;101347.78;;;47.86;22.95
19553;BME280;9420;50.876;7.012;2022-07-23T11:57:56;101349.53;;;48.28;23.43
19553;BME280;9420;50.876;7.012;2022-07-23T12:00:27;101349.88;;;47.44;22.97
19553;BME280;9420;50.876;7.012;2022-07-23T12:02:58;101351.47;;;46.15;23.67
19553;BME280;9420;50.876;7.012;2022-07-23T12:05:29;101350.81;;;46.34;23.72
19553;BME280;9420;50.876;7.012;2022-07-23T12:07:59;101342.06;;;47.46;23.25
19553;BME280;9420;50.876;7.012;2022-07-23T12:10:30;101345.44;;;47.48;23.21
19553;BME280;9420;50.876;7.012;2022-07-23T12:13:04;101355.63;;;47.18;23.97
19553;BME280;9420;50.876;7.012;2022-07-23T12:15:34;101351.09;;;47.78;22.74
19553;BME280;9420;50.876;7.012;2022-07-23T12:18:05;101353.84;;;46.01;23.92
19553;BME280;9420;50.876;7.012;2022-07-23T12:20:35;101355.47;;;46.97;23.19
19553;BME280;9420;50.876;7.012;2022-07-23T12:23:06;101349.47;;;46.10;24.75
19553;BME280;9420;50.876;7.012;2022-07-23T12:25:35;101354.50;;;47.80;22.58
19553;BME280;9420;50.876;7.012;2022-07-23T12:28:08;101345.84;;;48.78;21.66
19553;BME280;9420;50.876;7.012;2022-07-23T12:30:41;101346.16;;;50.04;20.41
19553;BME280;9420;50.876;7.012;2022-07-23T12:33:10;101347.84;;;46.83;22.08
19553;BME280;9420;50.876;7.012;2022-07-23T12:35:39;101348.41;;;46.16;23.66
19553;BME280;9420;50.876;7.012;2022-07-23T12:38:10;101329.97;;;48.33;21.00
19553;BME280;9420;50.876;7.012;2022-07-23T12:40:43;101336.66;;;48.57;21.34
19553;BME280;9420;50.876;7.012;2022-07-23T12:43:20;101338.09;;;49.97;19.76
19553;BME280;9420;50.876;7.012;2022-07-23T12:45:49;101349.44;;;50.16;19.99
19553;BME280;9420;50.876;7.012;2022-07-23T12:48:23;101344.72;;;47.88;21.32
19553;BME280;9420;50.876;7.012;2022-07-23T12:50:54;101352.84;;;45.91;22.82
19553;BME280;9420;50.876;7.012;2022-07-23T12:53:24;101344.06;;;47.51;21.58
19553;BME280;9420;50.876;7.012;2022-07-23T12:56:00;101354.88;;;46.54;22.28
19553;BME280;9420;50.876;7.012;2022-07-23T12:58:41;101344.44;;;47.95;21.12
19553;BME280;9420;50.876;7.012;2022-07-23T13:01:10;101354.97;;;45.79;22.02
19553;BME280;9420;50.876;7.012;2022-07-23T13:03:57;101355.47;;;45.97;22.27
19553;BME280;9420;50.876;7.012;2022-07-23T13:06:26;101346.06;;;49.16;20.06
19553;BME280;9420;50.876;7.012;2022-07-23T13:08:54;101348.94;;;48.81;19.90
19553;BME280;9420;50.876;7.012;2022-07-23T13:11:21;101343.78;;;49.28;19.58
19553;BME280;9420;50.876;7.012;2022-07-23T13:13:51;101353.38;;;50.15;19.48
19553;BME280;9420;50.876;7.012;2022-07-23T13:16:19;101335.03;;;49.94;18.75